Time;durP1;ratioP1;P1;durP2;ratioP2;P2;SDS_P1;SDS_P2;PMS_P1;PMS_P2;Temp;Humidity;BMP_temperature;BMP_pressure;BME280_temperature;BME280_humidity;BME280_pressure;Samples;Min_cycle;Max_cycle;Signal;HPM_P1;HPM_P2
2022/12/07 00:02:00;;;;;;;19.30;17.98;;;;;;;2.74;100.00;101929.13;5127032;29;20027;-68
2022/12/07 00:04:31;;;;;;;19.67;17.90;;;;;;;2.81;100.00;101932.75;5126982;28;20309;-67
2022/12/07 00:07:02;;;;;;;20.73;19.13;;;;;;;2.84;100.00;101933.22;5127208;29;20027;-68
2022/12/07 00:09:32;;;;;;;18.52;17.15;;;;;;;2.88;100.00;101928.38;5127153;28;20046;-67
2022/12/07 00:12:03;;;;;;;17.13;15.48;;;;;;;2.98;100.00;101923.59;5126766;29;20065;-67
2022/12/07 00:14:33;;;;;;;21.10;19.25;;;;;;;3.05;100.00;101929.88;5126562;28;20027;-67
2022/12/07 00:17:04;;;;;;;18.35;16.98;;;;;;;3.06;100.00;101928.88;5126689;28;20677;-69
2022/12/07 00:19:34;;;;;;;21.13;19.27;;;;;;;3.07;100.00;101921.69;5127033;28;20055;-67
2022/12/07 00:22:04;;;;;;;18.75;17.02;;;;;;;3.09;100.00;101925.03;5126091;29;20035;-66
2022/12/07 00:24:35;;;;;;;19.30;17.45;;;;;;;2.90;100.00;101883.66;5126285;28;20042;-68
2022/12/07 00:27:05;;;;;;;19.77;18.10;;;;;;;3.14;100.00;101912.81;5126647;29;20365;-70
2022/12/07 00:29:36;;;;;;;19.83;17.58;;;;;;;3.26;100.00;101914.00;5126529;29;20102;-68
2022/12/07 00:32:07;;;;;;;17.70;16.50;;;;;;;3.28;100.00;101911.97;5125066;29;20034;-69
2022/12/07 00:34:37;;;;;;;18.02;16.42;;;;;;;3.24;100.00;101900.00;5126597;28;20101;-66
2022/12/07 00:37:07;;;;;;;20.92;18.27;;;;;;;3.29;100.00;101907.47;5126802;29;20027;-69
2022/12/07 00:39:38;;;;;;;19.80;18.10;;;;;;;3.27;100.00;101912.97;5126855;29;20019;-66
2022/12/07 00:42:08;;;;;;;18.10;16.77;;;;;;;3.26;100.00;101911.31;5126727;28;20058;-69
2022/12/07 00:44:39;;;;;;;20.60;19.05;;;;;;;3.24;100.00;101913.34;5126749;28;20054;-67
2022/12/07 00:47:10;;;;;;;19.83;18.33;;;;;;;3.28;100.00;101919.97;5127340;29;20050;-67
2022/12/07 00:49:40;;;;;;;19.35;17.65;;;;;;;3.02;100.00;101872.38;5125713;29;20015;-69
2022/12/07 00:52:10;;;;;;;18.27;16.75;;;;;;;3.24;100.00;101901.84;5127184;29;20042;-68
2022/12/07 00:54:41;;;;;;;18.35;16.77;;;;;;;3.26;100.00;101905.16;5126817;28;20147;-66
2022/12/07 00:57:11;;;;;;;19.38;17.38;;;;;;;3.21;100.00;101903.03;5126836;29;20019;-67
2022/12/07 00:59:41;;;;;;;17.13;15.68;;;;;;;3.07;100.00;101887.00;5126939;28;20059;-67
2022/12/07 01:02:12;;;;;;;17.48;16.00;;;;;;;3.20;100.00;101904.03;5124755;29;20031;-67
2022/12/07 01:04:42;;;;;;;17.85;16.38;;;;;;;3.20;100.00;101906.72;5126240;28;20480;-67
2022/12/07 01:07:13;;;;;;;17.70;16.30;;;;;;;3.20;100.00;101898.69;5125785;28;20082;-69
2022/12/07 01:09:43;;;;;;;16.70;15.45;;;;;;;3.24;100.00;101900.00;5126175;29;20023;-67
2022/12/07 01:12:13;;;;;;;16.45;15.15;;;;;;;3.20;100.00;101896.03;5125453;28;20114;-68
2022/12/07 01:14:44;;;;;;;18.60;17.05;;;;;;;3.23;100.00;101910.84;5125580;28;20031;-66
2022/12/07 01:17:14;;;;;;;17.08;15.75;;;;;;;3.16;100.00;101900.09;5124226;29;20117;-66
2022/12/07 01:19:44;;;;;;;18.10;16.73;;;;;;;3.24;100.00;101916.00;5125468;28;20078;-66
2022/12/07 01:24:48;;;;;;;19.33;17.35;;;;;;;3.24;100.00;101912.50;5122176;28;20070;-67
2022/12/07 01:27:18;;;;;;;19.38;17.80;;;;;;;3.22;100.00;101903.84;5124111;29;20020;-66
2022/12/07 01:29:49;;;;;;;19.45;17.55;;;;;;;3.15;100.00;101902.94;5123963;29;20035;-66
2022/12/07 01:32:20;;;;;;;16.75;15.02;;;;;;;3.01;100.00;101907.22;5122488;29;20027;-67
2022/12/07 01:34:50;;;;;;;17.77;16.50;;;;;;;2.83;100.00;101904.91;5124155;28;20034;-66
2022/12/07 01:37:21;;;;;;;18.05;15.50;;;;;;;2.71;100.00;101911.66;5124213;29;20471;-66
2022/12/07 01:39:51;;;;;;;18.10;16.80;;;;;;;2.70;100.00;101910.81;5123779;29;20028;-66
2022/12/07 01:42:22;;;;;;;18.25;16.55;;;;;;;2.79;100.00;101919.59;5123502;29;20027;-67
2022/12/07 01:45:31;;;;;;;18.80;16.98;;;;;;;2.87;100.00;101911.53;5123850;28;20027;-66
2022/12/07 01:48:02;;;;;;;15.13;13.60;;;;;;;2.90;100.00;101902.31;5123896;29;20027;-66
2022/12/07 01:50:33;;;;;;;19.60;17.50;;;;;;;2.90;100.00;101902.31;5122769;29;20070;-67
2022/12/07 01:53:08;;;;;;;18.77;17.20;;;;;;;2.86;100.00;101906.38;5123327;28;20492;-66
2022/12/07 01:55:43;;;;;;;18.83;15.23;;;;;;;2.77;100.00;101915.44;5123770;29;20396;-67
2022/12/07 01:58:14;;;;;;;19.20;17.48;;;;;;;2.71;100.00;101909.81;5123673;29;20460;-67
2022/12/07 02:00:45;;;;;;;19.20;17.55;;;;;;;2.79;100.00;101906.25;5123748;29;20058;-67
2022/12/07 02:03:21;;;;;;;17.42;15.82;;;;;;;2.91;100.00;101911.97;5123334;28;20031;-67
2022/12/07 02:05:53;;;;;;;18.80;17.10;;;;;;;2.98;100.00;101912.94;5123645;29;20054;-66
2022/12/07 02:08:24;;;;;;;17.80;16.40;;;;;;;2.95;100.00;101898.09;5123591;29;20038;-66
2022/12/07 02:10:55;;;;;;;18.70;17.30;;;;;;;3.08;100.00;101916.19;5123431;29;20023;-66
2022/12/07 02:13:29;;;;;;;19.05;17.50;;;;;;;3.14;100.00;101909.31;5122849;28;20480;-66
2022/12/07 02:16:18;;;;;;;18.70;17.13;;;;;;;3.19;100.00;101910.38;5122148;29;20034;-66
2022/12/07 02:18:51;;;;;;;20.05;18.52;;;;;;;3.13;100.00;101902.31;5122996;28;20031;-68
2022/12/07 02:22:07;;;;;;;17.25;15.45;;;;;;;2.97;100.00;101896.09;5123316;29;20050;-67
2022/12/07 02:25:08;;;;;;;20.83;18.92;;;;;;;2.77;100.00;101900.28;5123313;28;20038;-67
2022/12/07 02:28:16;;;;;;;18.55;17.30;;;;;;;2.66;100.00;101898.84;5123467;29;20034;-67
2022/12/07 02:30:50;;;;;;;21.40;18.25;;;;;;;2.59;100.00;101895.25;5123468;29;20023;-66
2022/12/07 02:33:34;;;;;;;18.98;17.35;;;;;;;2.63;100.00;101893.88;5121671;28;20029;-67
2022/12/07 02:36:10;;;;;;;19.67;17.77;;;;;;;2.70;100.00;101899.31;5122206;29;20027;-66
2022/12/07 02:38:55;;;;;;;18.73;17.33;;;;;;;2.72;100.00;101902.66;5121921;29;20019;-66
2022/12/07 02:41:44;;;;;;;19.25;17.80;;;;;;;2.72;100.00;101891.97;5123338;29;20353;-66
2022/12/07 02:44:18;;;;;;;18.42;16.63;;;;;;;2.57;100.00;101867.94;5121746;29;20507;-66
2022/12/07 02:46:54;;;;;;;18.90;17.60;;;;;;;2.68;100.00;101885.34;5123045;29;20054;-67
2022/12/07 02:49:27;;;;;;;19.02;17.42;;;;;;;2.67;100.00;101884.50;5123420;29;20023;-68
2022/12/07 02:51:57;;;;;;;17.30;16.13;;;;;;;2.67;100.00;101884.50;5122652;29;20038;-66
2022/12/07 02:54:31;;;;;;;31.23;17.58;;;;;;;2.69;100.00;101884.34;5123254;28;20032;-67
2022/12/07 02:57:07;;;;;;;20.00;16.05;;;;;;;2.55;100.00;101883.28;5122751;29;20039;-67
2022/12/07 03:00:03;;;;;;;18.90;17.35;;;;;;;2.61;100.00;101897.72;5121783;29;20522;-67
2022/12/07 03:02:52;;;;;;;20.00;18.02;;;;;;;2.48;100.00;101905.50;5119650;29;20047;-67
2022/12/07 03:05:44;;;;;;;19.90;18.13;;;;;;;2.41;100.00;101901.88;5122940;29;20027;-67
2022/12/07 03:08:53;;;;;;;18.92;17.55;;;;;;;2.35;100.00;101900.75;5122352;29;20546;-67
2022/12/07 03:11:40;;;;;;;21.15;19.67;;;;;;;2.19;100.00;101877.69;5112554;29;20041;-67
2022/12/07 03:14:30;;;;;;;21.50;19.75;;;;;;;2.25;100.00;101902.81;5122697;28;20078;-67
2022/12/07 03:17:12;;;;;;;19.40;18.00;;;;;;;2.22;100.00;101896.00;5123588;29;20031;-67
2022/12/07 03:19:44;;;;;;;20.38;18.75;;;;;;;2.14;100.00;101895.22;5123077;29;20032;-67
2022/12/07 03:22:15;;;;;;;18.38;16.83;;;;;;;1.96;100.00;101888.31;5122585;29;20389;-67
2022/12/07 03:25:04;;;;;;;20.63;19.13;;;;;;;1.91;100.00;101888.00;5122814;28;20024;-67
2022/12/07 03:27:38;;;;;;;25.67;18.02;;;;;;;1.83;100.00;101889.88;5123162;29;20035;-67
2022/12/07 03:30:12;;;;;;;18.27;16.70;;;;;;;1.56;100.00;101868.03;5125184;28;20496;-67
2022/12/07 03:33:04;;;;;;;17.85;16.30;;;;;;;1.61;100.00;101879.00;5124726;29;20147;-67
2022/12/07 03:35:40;;;;;;;18.50;16.92;;;;;;;1.48;100.00;101875.19;5126792;29;20034;-67
2022/12/07 03:38:10;;;;;;;19.02;17.65;;;;;;;1.41;100.00;101868.91;5126468;29;20031;-67
2022/12/07 03:41:09;;;;;;;17.85;16.40;;;;;;;1.20;100.00;101864.13;5126328;29;20041;-67
2022/12/07 03:43:41;;;;;;;18.90;17.48;;;;;;;1.17;100.00;101877.78;5125876;28;20045;-70
2022/12/07 03:46:21;;;;;;;16.08;14.98;;;;;;;1.07;100.00;101871.81;5125233;29;20023;-67
2022/12/07 03:48:54;;;;;;;16.08;14.70;;;;;;;1.14;100.00;101884.28;5126682;29;20027;-67
2022/12/07 03:51:38;;;;;;;17.30;15.82;;;;;;;0.90;100.00;101861.19;5126673;29;20031;-66
2022/12/07 03:54:34;;;;;;;17.92;16.63;;;;;;;1.01;100.00;101879.47;5126032;28;20031;-66
2022/12/07 03:57:07;;;;;;;20.40;18.88;;;;;;;0.99;100.00;101876.16;5126800;29;20027;-66
2022/12/07 03:59:39;;;;;;;19.58;17.02;;;;;;;1.00;100.00;101883.13;5126490;29;20031;-66
2022/12/07 04:02:12;;;;;;;18.02;16.52;;;;;;;1.06;100.00;101878.13;5125999;29;20050;-68
2022/12/07 04:04:43;;;;;;;18.98;17.48;;;;;;;1.12;100.00;101878.31;5126534;28;20099;-66
2022/12/07 04:07:13;;;;;;;19.45;17.70;;;;;;;1.17;100.00;101873.28;5126378;29;20027;-65
2022/12/07 04:09:44;;;;;;;20.92;19.15;;;;;;;1.17;100.00;101867.97;5126665;29;20034;-66
2022/12/07 04:12:14;;;;;;;17.40;16.23;;;;;;;1.10;100.00;101871.50;5126229;29;20091;-65
2022/12/07 04:14:45;;;;;;;19.45;17.65;;;;;;;1.05;100.00;101872.00;5126334;28;20027;-66
2022/12/07 04:17:15;;;;;;;17.67;16.38;;;;;;;1.02;100.00;101880.31;5126396;29;20100;-65
2022/12/07 04:19:45;;;;;;;18.88;17.63;;;;;;;0.99;100.00;101875.31;5126480;29;20038;-66
2022/12/07 04:22:16;;;;;;;20.95;19.15;;;;;;;1.02;100.00;101881.13;5125827;29;20030;-66
2022/12/07 04:24:46;;;;;;;20.63;18.75;;;;;;;1.07;100.00;101879.81;5125930;28;20535;-66
2022/12/07 04:27:16;;;;;;;18.23;16.88;;;;;;;1.03;100.00;101863.34;5126541;29;20034;-66
2022/12/07 04:29:47;;;;;;;17.42;16.10;;;;;;;1.29;100.00;101881.75;5126391;29;20051;-66
2022/12/07 04:32:17;;;;;;;22.40;20.70;;;;;;;1.43;100.00;101888.22;5125662;29;20039;-65
2022/12/07 04:34:48;;;;;;;19.13;17.73;;;;;;;1.57;100.00;101890.97;5126395;28;20535;-66
2022/12/07 04:37:18;;;;;;;19.88;18.17;;;;;;;1.69;100.00;101894.09;5126306;29;20039;-66
2022/12/07 04:39:48;;;;;;;23.33;21.27;;;;;;;1.81;100.00;101903.38;5125768;29;20027;-66
2022/12/07 04:42:19;;;;;;;22.60;20.90;;;;;;;1.90;100.00;101894.34;5124786;28;20038;-66
2022/12/07 04:44:50;;;;;;;21.88;20.27;;;;;;;2.02;100.00;101900.91;5124470;28;20031;-68
2022/12/07 04:47:21;;;;;;;23.25;21.17;;;;;;;2.08;100.00;101891.41;5125305;29;20098;-66
2022/12/07 04:49:51;;;;;;;23.60;21.67;;;;;;;1.97;100.00;101871.34;5124169;29;20174;-66
2022/12/07 04:52:21;;;;;;;31.88;20.23;;;;;;;2.17;100.00;101884.22;5125043;29;20023;-66
2022/12/07 04:54:52;;;;;;;21.80;19.55;;;;;;;2.22;100.00;101873.84;5125108;28;20102;-66
2022/12/07 04:57:22;;;;;;;19.63;17.75;;;;;;;2.25;100.00;101877.00;5125337;29;20019;-66
2022/12/07 04:59:52;;;;;;;18.08;16.75;;;;;;;1.98;100.00;101816.22;5124700;29;20027;-66
2022/12/07 05:02:23;;;;;;;20.65;19.08;;;;;;;2.26;100.00;101865.34;5124687;29;20027;-66
2022/12/07 05:04:53;;;;;;;20.27;15.05;;;;;;;2.20;100.00;101865.19;5125092;28;20488;-66
2022/12/07 05:07:23;;;;;;;16.17;14.98;;;;;;;2.17;100.00;101865.56;5125109;29;20387;-66
2022/12/07 05:09:54;;;;;;;18.05;16.20;;;;;;;2.12;100.00;101862.59;5125050;29;20106;-66
2022/12/07 05:12:24;;;;;;;16.60;14.93;;;;;;;2.02;100.00;101863.63;5124427;29;20058;-66
2022/12/07 05:14:55;;;;;;;15.38;14.05;;;;;;;1.98;100.00;101867.66;5124765;28;20457;-66
2022/12/07 05:17:25;;;;;;;15.07;13.73;;;;;;;1.94;100.00;101866.34;5124771;29;20019;-66
2022/12/07 05:19:55;;;;;;;12.52;11.60;;;;;;;1.92;100.00;101863.03;5124931;29;20114;-66
2022/12/07 05:22:27;;;;;;;12.68;11.65;;;;;;;1.81;100.00;101854.59;5122827;29;20551;-66
2022/12/07 05:24:58;;;;;;;13.02;12.02;;;;;;;1.85;100.00;101867.41;5123846;28;20054;-67
2022/12/07 05:27:28;;;;;;;12.90;11.75;;;;;;;1.85;100.00;101869.22;5124529;29;20031;-66
2022/12/07 05:29:59;;;;;;;14.00;12.80;;;;;;;1.87;100.00;101869.88;5124411;29;20027;-66
2022/12/07 05:32:29;;;;;;;16.63;14.82;;;;;;;1.87;100.00;101861.91;5124721;29;20034;-66
2022/12/07 05:34:59;;;;;;;17.48;16.15;;;;;;;1.94;100.00;101865.53;5125510;28;20250;-66
2022/12/07 05:37:30;;;;;;;13.40;12.50;;;;;;;1.80;100.00;101856.44;5125058;29;20070;-66
2022/12/07 05:40:00;;;;;;;20.88;18.17;;;;;;;1.50;100.00;101823.44;5124695;29;20031;-66
2022/12/07 05:42:31;;;;;;;18.20;16.55;;;;;;;1.83;100.00;101868.56;5123818;29;20058;-66
2022/12/07 05:45:02;;;;;;;16.55;15.43;;;;;;;1.71;100.00;101864.66;5123922;28;20086;-66
2022/12/07 05:47:32;;;;;;;21.38;19.65;;;;;;;1.67;100.00;101872.16;5120495;29;20046;-66
2022/12/07 05:50:04;;;;;;;22.00;19.67;;;;;;;1.61;100.00;101868.34;5119485;28;20019;-68
2022/12/07 05:52:35;;;;;;;17.75;16.55;;;;;;;1.54;100.00;101870.03;5122921;28;20063;-66
2022/12/07 05:55:06;;;;;;;18.05;16.60;;;;;;;1.21;100.00;101829.38;5121983;28;20057;-66
2022/12/07 05:57:37;;;;;;;20.05;18.25;;;;;;;1.52;100.00;101877.34;5121977;29;20055;-66
2022/12/07 06:00:08;;;;;;;18.83;17.65;;;;;;;1.55;100.00;101881.50;5123703;29;20035;-66
2022/12/07 06:02:38;;;;;;;19.23;17.45;;;;;;;1.60;100.00;101877.31;5122985;29;20031;-66
2022/12/07 06:05:08;;;;;;;17.65;16.40;;;;;;;1.66;100.00;101881.97;5123817;28;20110;-66
2022/12/07 06:07:39;;;;;;;16.98;15.82;;;;;;;1.65;100.00;101871.50;5119402;29;20019;-66
2022/12/07 06:10:10;;;;;;;18.52;17.20;;;;;;;1.58;100.00;101865.19;5121178;29;20306;-66
2022/12/07 06:12:42;;;;;;;15.60;14.70;;;;;;;1.47;100.00;101866.38;5118368;29;20041;-66
2022/12/07 06:15:13;;;;;;;17.38;16.00;;;;;;;1.33;100.00;101870.59;5120153;28;20019;-66
2022/12/07 06:17:43;;;;;;;19.10;17.63;;;;;;;1.25;100.00;101864.47;5122335;28;20074;-66
2022/12/07 06:20:14;;;;;;;16.40;15.02;;;;;;;1.18;100.00;101863.47;5123067;28;20023;-67
2022/12/07 06:22:44;;;;;;;17.13;15.32;;;;;;;1.09;100.00;101853.88;5122462;29;20058;-67
2022/12/07 06:25:14;;;;;;;17.73;16.27;;;;;;;1.01;100.00;101868.84;5121777;28;20023;-67
2022/12/07 06:27:45;;;;;;;18.73;17.52;;;;;;;0.97;100.00;101872.81;5129799;28;20037;-64
2022/12/07 06:30:15;;;;;;;16.13;14.90;;;;;;;0.91;100.00;101877.97;5123284;29;20090;-66
2022/12/07 06:32:46;;;;;;;19.13;17.20;;;;;;;0.82;100.00;101873.69;5123144;29;20090;-65
2022/12/07 06:35:16;;;;;;;18.42;16.92;;;;;;;0.80;100.00;101875.69;5122880;29;20442;-66
2022/12/07 06:37:46;;;;;;;17.13;15.75;;;;;;;0.74;100.00;101871.84;5118633;28;20113;-66
2022/12/07 06:40:17;;;;;;;18.70;16.77;;;;;;;0.61;100.00;101851.06;5121820;29;20041;-66
2022/12/07 06:42:47;;;;;;;18.05;16.70;;;;;;;0.71;100.00;101866.88;5121518;29;20030;-67
2022/12/07 06:45:18;;;;;;;21.38;19.08;;;;;;;0.70;100.00;101869.69;5121962;29;20027;-65
2022/12/07 06:47:48;;;;;;;21.63;19.90;;;;;;;0.56;100.00;101850.78;5123134;29;20027;-65
2022/12/07 06:50:19;;;;;;;21.05;19.60;;;;;;;0.47;100.00;101865.03;5122925;29;20396;-66
2022/12/07 06:52:50;;;;;;;20.25;18.60;;;;;;;0.33;100.00;101863.84;5122878;29;20034;-67
2022/12/07 06:55:21;;;;;;;19.67;18.02;;;;;;;0.26;100.00;101873.50;5123389;29;20031;-66
2022/12/07 06:57:51;;;;;;;18.73;17.08;;;;;;;0.21;100.00;101874.97;5123521;29;20390;-66
2022/12/07 07:00:22;;;;;;;19.75;18.13;;;;;;;0.16;100.00;101869.31;5123399;29;20034;-65
2022/12/07 07:02:52;;;;;;;19.27;17.55;;;;;;;0.11;100.00;101879.59;5122725;29;20066;-66
2022/12/07 07:05:23;;;;;;;20.35;18.55;;;;;;;0.07;100.00;101878.25;5122815;28;20101;-65
2022/12/07 07:07:53;;;;;;;19.50;17.55;;;;;;;0.04;100.00;101876.75;5127285;29;20034;-65
2022/12/07 07:10:23;;;;;;;18.08;16.65;;;;;;;-0.10;100.00;101862.28;5127475;29;20061;-65
2022/12/07 07:12:54;;;;;;;18.38;16.85;;;;;;;-0.15;100.00;101850.50;5125875;29;20027;-64
2022/12/07 07:15:24;;;;;;;18.38;16.67;;;;;;;-0.26;100.00;101846.28;5127216;29;20074;-64
2022/12/07 07:17:55;;;;;;;20.00;18.17;;;;;;;-0.12;100.00;101868.75;5127407;29;20030;-64
2022/12/07 07:20:26;;;;;;;22.13;20.10;;;;;;;-0.12;100.00;101876.72;5127153;29;20122;-64
2022/12/07 07:22:56;;;;;;;21.70;20.00;;;;;;;-0.14;100.00;101870.72;5143001;23;20039;-66
2022/12/07 07:25:27;;;;;;;18.75;17.30;;;;;;;-0.17;100.00;101865.75;5130052;29;20030;-67
2022/12/07 07:27:57;;;;;;;19.08;17.65;;;;;;;-0.20;100.00;101872.19;5129943;29;20027;-66
2022/12/07 07:30:28;;;;;;;18.02;16.60;;;;;;;-0.29;100.00;101857.25;5129758;29;20023;-67
2022/12/07 07:33:00;;;;;;;21.33;19.65;;;;;;;-0.19;100.00;101883.66;5129193;28;20031;-67
2022/12/07 07:35:32;;;;;;;25.77;22.38;;;;;;;-0.16;100.00;101872.72;5129721;29;20332;-66
2022/12/07 07:38:03;;;;;;;23.58;21.13;;;;;;;-0.12;100.00;101872.25;5130123;29;20558;-66
2022/12/07 07:40:34;;;;;;;24.38;21.55;;;;;;;-0.10;100.00;101870.25;5112690;29;20110;-66
2022/12/07 07:43:04;;;;;;;19.52;17.58;;;;;;;-0.10;100.00;101872.91;5129250;28;20060;-66
2022/12/07 07:45:35;;;;;;;18.70;17.00;;;;;;;-0.06;100.00;101868.09;5130153;29;20527;-66
2022/12/07 07:48:05;;;;;;;22.23;20.67;;;;;;;0.15;100.00;101872.97;5129987;29;20023;-66
2022/12/07 07:50:36;;;;;;;22.48;20.80;;;;;;;0.33;100.00;101876.31;5130323;29;20475;-67
2022/12/07 07:53:06;;;;;;;24.50;22.73;;;;;;;0.41;100.00;101863.03;5128713;28;20054;-65
2022/12/07 07:55:36;;;;;;;25.52;23.45;;;;;;;0.59;100.00;101866.34;5133951;29;20123;-64
2022/12/07 07:58:07;;;;;;;26.58;23.85;;;;;;;0.84;100.00;101882.31;5131895;29;20110;-66
2022/12/07 08:00:37;;;;;;;25.77;23.70;;;;;;;0.79;100.00;101850.09;5126127;29;20035;-66
2022/12/07 08:03:07;;;;;;;26.35;24.20;;;;;;;1.10;100.00;101892.78;5120308;28;20027;-65
2022/12/07 08:05:38;;;;;;;28.42;26.02;;;;;;;1.19;100.00;101894.41;5125860;29;20031;-68
2022/12/07 08:08:08;;;;;;;27.10;24.67;;;;;;;1.26;100.00;101888.22;5126420;29;20033;-65
2022/12/07 08:10:39;;;;;;;27.38;25.23;;;;;;;1.28;100.00;101891.56;5125790;29;20027;-65
2022/12/07 08:13:13;;;;;;;26.35;24.05;;;;;;;1.45;100.00;101897.66;5125476;28;20034;-65
2022/12/07 08:15:46;;;;;;;26.73;24.60;;;;;;;1.56;100.00;101902.63;5124942;28;20606;-65
2022/12/07 08:18:16;;;;;;;26.40;24.30;;;;;;;1.59;100.00;101898.78;5125617;29;20039;-66
2022/12/07 08:20:47;;;;;;;22.95;20.83;;;;;;;1.56;100.00;101894.63;5126046;29;20030;-65
2022/12/07 08:23:17;;;;;;;21.15;19.42;;;;;;;1.60;100.00;101893.31;5125244;28;20062;-65
2022/12/07 08:25:47;;;;;;;20.58;18.85;;;;;;;1.55;100.00;101892.16;5125951;29;20062;-65
2022/12/07 08:28:18;;;;;;;22.27;20.27;;;;;;;1.47;100.00;101893.00;5126018;29;20031;-67
2022/12/07 08:30:48;;;;;;;17.95;16.48;;;;;;;1.59;100.00;101904.94;5125844;29;20180;-64
2022/12/07 08:33:22;;;;;;;22.75;20.63;;;;;;;1.76;100.00;101904.88;5107492;29;20051;-64
2022/12/07 08:35:52;;;;;;;24.95;22.45;;;;;;;1.94;100.00;101903.66;5125420;29;20031;-64
2022/12/07 08:38:23;;;;;;;21.17;18.98;;;;;;;2.12;100.00;101895.38;5125749;29;20245;-65
2022/12/07 08:40:57;;;;;;;23.10;21.35;;;;;;;2.10;100.00;101875.25;5125433;29;20054;-65
2022/12/07 08:43:28;;;;;;;21.40;19.33;;;;;;;2.36;100.00;101902.41;5125033;28;20035;-70
2022/12/07 08:46:17;;;;;;;25.83;22.05;;;;;;;2.50;100.00;101906.97;5125612;29;20094;-66
2022/12/07 08:49:01;;;;;;;23.27;21.10;;;;;;;2.64;100.00;101895.53;5125700;29;20039;-64
2022/12/07 08:51:32;;;;;;;19.95;17.85;;;;;;;2.78;100.00;101903.78;5108501;29;20399;-66
2022/12/07 08:54:07;;;;;;;21.17;18.95;;;;;;;2.89;100.00;101900.66;5124969;28;20027;-67
2022/12/07 08:56:38;;;;;;;18.45;17.20;;;;;;;2.98;100.00;101897.75;5108390;29;20403;-65
2022/12/07 08:59:09;;;;;;;21.65;19.58;;;;;;;3.07;100.00;101895.00;5125447;29;20400;-66
2022/12/07 09:01:39;;;;;;;21.48;17.52;;;;;;;3.11;100.00;101896.31;5124602;29;20066;-66
2022/12/07 09:04:10;;;;;;;19.42;16.52;;;;;;;3.11;100.00;101885.63;5107179;29;20030;-65
2022/12/07 09:06:41;;;;;;;17.67;16.35;;;;;;;3.20;100.00;101895.19;5108003;29;20493;-65
2022/12/07 09:09:14;;;;;;;21.00;17.25;;;;;;;3.23;100.00;101898.34;5125020;29;20031;-63
2022/12/07 09:11:45;;;;;;;23.30;15.88;;;;;;;3.30;100.00;101907.28;5124918;29;20136;-66
2022/12/07 09:14:15;;;;;;;19.45;17.70;;;;;;;3.39;100.00;101900.03;5123984;28;20070;-62
2022/12/07 09:16:46;;;;;;;18.35;16.88;;;;;;;3.41;100.00;101889.16;5125075;29;20019;-64
2022/12/07 09:19:16;;;;;;;15.45;13.75;;;;;;;3.50;100.00;101904.91;5125326;29;20031;-62
2022/12/07 09:21:47;;;;;;;15.40;14.15;;;;;;;3.53;100.00;101893.84;5124552;29;20499;-68
2022/12/07 09:24:17;;;;;;;15.23;13.90;;;;;;;3.56;100.00;101889.97;5124379;28;20035;-63
2022/12/07 09:26:48;;;;;;;18.73;14.40;;;;;;;3.58;100.00;101898.63;5124174;28;20035;-65
2022/12/07 09:29:18;;;;;;;17.65;16.13;;;;;;;3.43;100.00;101866.63;5124707;29;20031;-62
2022/12/07 09:31:49;;;;;;;23.40;14.82;;;;;;;3.69;100.00;101899.00;5124380;29;20066;-63
2022/12/07 09:34:20;;;;;;;13.00;11.88;;;;;;;3.75;100.00;101884.09;5107028;29;20271;-62
2022/12/07 09:36:50;;;;;;;17.38;15.90;;;;;;;3.80;100.00;101889.69;5107360;29;20023;-62
2022/12/07 09:39:20;;;;;;;20.00;14.80;;;;;;;3.86;100.00;101896.13;5124024;29;20027;-67
2022/12/07 09:41:51;;;;;;;14.48;13.02;;;;;;;3.66;100.00;101869.19;5123909;29;20031;-64
2022/12/07 09:44:27;;;;;;;15.10;13.85;;;;;;;3.82;100.00;101884.97;5124317;28;20376;-61
2022/12/07 09:46:59;;;;;;;17.10;12.88;;;;;;;3.82;100.00;101889.50;5124239;29;20057;-66
2022/12/07 09:49:32;;;;;;;11.52;10.80;;;;;;;3.82;100.00;101879.63;5124446;29;20499;-65
2022/12/07 09:52:18;;;;;;;15.55;14.05;;;;;;;3.86;100.00;101878.25;5124409;29;20027;-62
2022/12/07 09:54:50;;;;;;;16.33;12.50;;;;;;;3.84;100.00;101871.44;5125125;28;20023;-62
2022/12/07 09:57:28;;;;;;;13.40;11.45;;;;;;;3.93;100.00;101873.00;5125078;29;20621;-62
2022/12/07 10:00:03;;;;;;;13.90;12.73;;;;;;;3.90;100.00;101868.03;5127924;29;20027;-64
2022/12/07 10:02:46;;;;;;;12.75;11.68;;;;;;;3.76;100.00;101847.50;5130185;29;20027;-63
2022/12/07 10:05:22;;;;;;;15.35;11.75;;;;;;;3.99;100.00;101869.59;5128276;29;20539;-62
2022/12/07 10:07:52;;;;;;;13.60;12.35;;;;;;;3.92;100.00;101848.13;5124340;29;20024;-64
2022/12/07 10:10:41;;;;;;;15.85;10.57;;;;;;;4.04;100.00;101865.31;5124715;29;20559;-63
2022/12/07 10:13:20;;;;;;;13.70;12.27;;;;;;;4.05;100.00;101834.06;5125294;28;20107;-64
2022/12/07 10:15:54;;;;;;;13.32;12.27;;;;;;;4.36;100.00;101857.84;5124987;29;20023;-67
2022/12/07 10:18:36;;;;;;;15.65;11.73;;;;;;;4.62;100.00;101854.59;5124943;29;20038;-65
2022/12/07 10:21:16;;;;;;;15.82;12.07;;;;;;;4.96;100.00;101856.50;5124714;29;20106;-64
2022/12/07 10:24:14;;;;;;;12.93;11.82;;;;;;;5.15;100.00;101844.28;5123806;28;20043;-65
2022/12/07 10:26:54;;;;;;;15.70;10.35;;;;;;;5.43;100.00;101858.47;5124380;29;20153;-65
2022/12/07 10:29:38;;;;;;;12.68;10.75;;;;;;;5.56;100.00;101865.75;5124895;29;20039;-63
2022/12/07 10:32:14;;;;;;;9.90;8.93;;;;;;;5.52;100.00;101861.81;5124334;29;20152;-63
2022/12/07 10:34:45;;;;;;;13.68;9.57;;;;;;;5.43;100.00;101861.97;5123729;28;20031;-64
2022/12/07 10:37:18;;;;;;;15.98;9.05;;;;;;;5.32;100.00;101859.03;5122468;29;20397;-64
2022/12/07 10:39:54;;;;;;;10.35;9.43;;;;;;;5.26;100.00;101857.94;5123545;28;20082;-65
2022/12/07 10:42:31;;;;;;;14.13;10.15;;;;;;;5.32;100.00;101851.81;5123811;29;20119;-63
2022/12/07 10:45:15;;;;;;;8.70;7.90;;;;;;;5.32;100.00;101849.13;5124195;28;20033;-62
2022/12/07 10:48:08;;;;;;;10.10;8.18;;;;;;;5.30;100.00;101848.50;5124494;29;20031;-66
2022/12/07 10:50:47;;;;;;;10.75;8.52;;;;;;;5.31;100.00;101844.81;5124431;29;20102;-66
2022/12/07 10:53:35;;;;;;;11.68;10.60;;;;;;;5.32;100.00;101838.41;5123670;28;20423;-66
2022/12/07 10:56:27;;;;;;;9.90;8.95;;;;;;;5.31;100.00;101831.41;5124350;29;20159;-64
2022/12/07 10:59:34;;;;;;;13.63;9.38;;;;;;;5.36;100.00;101831.66;5124596;29;20098;-64
2022/12/07 11:02:23;;;;;;;11.07;10.23;;;;;;;5.47;100.00;101826.78;5106802;29;20035;-64
2022/12/07 11:05:06;;;;;;;9.18;8.35;;;;;;;5.41;100.00;101807.78;5124601;28;20460;-67
2022/12/07 11:07:37;;;;;;;16.08;8.88;;;;;;;5.57;100.00;101819.16;5124410;29;20384;-66
2022/12/07 11:10:26;;;;;;;8.52;7.70;;;;;;;5.57;100.00;101805.78;5124028;29;20019;-65
2022/12/07 11:13:10;;;;;;;8.90;8.20;;;;;;;5.65;100.00;101806.44;5125305;28;20038;-65
2022/12/07 11:15:53;;;;;;;8.77;7.93;;;;;;;5.62;100.00;101808.69;5108812;29;20294;-66
2022/12/07 11:18:29;;;;;;;11.35;8.40;;;;;;;5.62;100.00;101793.44;5126088;29;20027;-65
2022/12/07 11:21:37;;;;;;;7.43;6.82;;;;;;;5.62;100.00;101798.78;5124951;29;20035;-65
2022/12/07 11:24:17;;;;;;;8.00;7.28;;;;;;;5.73;100.00;101784.00;5124890;28;20066;-65
2022/12/07 11:26:48;;;;;;;;;;;;;;;5.91;100.00;101786.97;5125309;29;20407;-67
2022/12/07 11:29:27;;;;;;;8.88;8.10;;;;;;;5.94;100.00;101781.19;5107905;29;19917;-65
2022/12/07 11:32:13;;;;;;;13.95;7.88;;;;;;;6.01;100.00;101771.31;5124235;29;20390;-64
2022/12/07 11:34:58;;;;;;;7.43;6.55;;;;;;;6.08;100.00;101774.00;5125340;28;20035;-65
2022/12/07 11:37:35;;;;;;;9.38;6.20;;;;;;;6.10;100.00;101767.41;5125176;29;20027;-65
2022/12/07 11:40:15;;;;;;;7.25;6.25;;;;;;;6.28;100.00;101765.97;5126298;29;20062;-64
2022/12/07 11:42:52;;;;;;;10.98;5.95;;;;;;;6.43;100.00;101762.06;5126339;28;20102;-66
2022/12/07 11:45:33;;;;;;;7.35;6.63;;;;;;;6.49;100.00;101747.00;5122549;29;20031;-65